Louisville, KY

9:47 PM EST on February 08, 2016 (GMT -0500)
Louisville International-Standiford | | Change Station
CLOSE
Current Station
Airport
Location: Louisville,
Elevation: 489 ft
Nearby Weather Stations
Active Advisory: Winter Weather Advisory

Elev 489 ft 38.17 °N, 85.74 °W | Updated 7 minutes ago

Light Snow
Light Snow
26 °F
Feels Like 14 °F
N
16
Wind Variable Wind from WNW

Today
High -- | Low -- °F
--% Chance of Precip.
Yesterday
High -- | Low -- °F
Precip. -- in
Pressure 29.83 in
Visibility 1.8 miles
Clouds Mostly Cloudy 1600 ft
Overcast 2300 ft
Windchill 14 °F
Dew Point 21 °F
Humidity 81%
Rainfall 0.23 in
Snow Depth Not available.
7:41 AM 6:13 PM
New Moon, 0% visible
SPECI KSDF 090240Z 30014KT 1 3/4SM -SN BKN016 OVC023 M03/M06 A2983 RMK AO2 SNB16 P0000 T10331061
Pressure 29.83 in
Visibility 1.8 miles
Clouds Mostly Cloudy 1600 ft
Overcast 2300 ft
Windchill 14 °F
Dew Point 21 °F
Humidity 81%
Rainfall 0.23 in
Snow Depth Not available.
7:41 AM 6:13 PM
New Moon, 0% visible
SPECI KSDF 090240Z 30014KT 1 3/4SM -SN BKN016 OVC023 M03/M06 A2983 RMK AO2 SNB16 P0000 T10331061

10-Day Weather Forecast

Almanac

Astronomy

Feb. 08, 2016 Rise Set
Actual Time
Civil Twilight
Nautical Twilight
Astronomical Twilight
Moon
Length of Visible Light
Length of Day
Tomorrow will be .
, % of the Moon is Illuminated

Today's Extremes

State Highs State Lows

Community

WunderPhotos

Upload Photos

1,891,527 photos uploaded!

WunderBlog® & News

Nearby

Air Quality

  Air Quality AQ Index Pollutant
Not available.

Snow Depth

Station Depth Elevation

Earthquake Activity

City Distance Mag. Time & Date
Minimum magnitude displayed is 2.5.

Coastal Water Temperatures

Place Temperature

Stations

Nearby Weather Stations

Station Location Temp. Windchill Dew Point Humidity Wind Precip. Elev Updated Type
                   

Watches & Warnings

Winter Weather Advisory
Issued: 8:14 PM CST Feb. 8, 2016 – National Weather Service

... Winter Weather Advisory remains in effect until 6 PM EST /5 PM
CST/ Tuesday...

* timing... snow showers will continue through at least Tuesday
afternoon.

* Main impact... periods of moderate to briefly heavy snow
showers will impact travel at times. Roads may become slick
and snow covered... especially secondary and untreated
surfaces. 1 to 3 inches of snow accumulation is expected.

* Other impacts... gusty winds along with moderate snow showers
may reduce visibility at times. Also wet roadways may become
slick overnight as temperatures drop.

Precautionary/preparedness actions...

Research shows that more traffic accidents occur with an inch or
less of snow... before drivers realize that traction is reduced.
Don't become a statistic... slow down and leave extra distance
between vehicles.



Rjs/eer